createdAt,value
2023-02-25T00:01:18.346Z,7.93
2023-02-25T00:03:46.503Z,7.00
2023-02-25T00:06:16.170Z,6.00
2023-02-25T00:08:45.457Z,6.00
2023-02-25T00:11:16.247Z,6.30
2023-02-25T00:13:44.873Z,5.70
2023-02-25T00:16:13.400Z,5.90
2023-02-25T00:18:44.340Z,5.73
2023-02-25T00:21:15.241Z,4.50
2023-02-25T00:23:44.589Z,4.93
2023-02-25T00:26:13.258Z,5.57
2023-02-25T00:28:43.174Z,5.90
2023-02-25T00:31:13.946Z,5.07
2023-02-25T00:33:42.757Z,4.63
2023-02-25T00:36:13.220Z,5.70
2023-02-25T00:38:41.368Z,5.00
2023-02-25T00:41:12.588Z,4.50
2023-02-25T00:43:44.401Z,5.00
2023-02-25T00:46:12.596Z,4.37
2023-02-25T00:48:42.094Z,4.43
2023-02-25T00:51:11.785Z,4.33
2023-02-25T00:53:40.163Z,4.80
2023-02-25T00:56:10.010Z,4.67
2023-02-25T00:58:38.280Z,4.97
2023-02-25T01:01:17.974Z,4.87
2023-02-25T01:03:45.892Z,5.20
2023-02-25T01:06:14.090Z,4.77
2023-02-25T01:08:42.207Z,4.40
2023-02-25T01:11:16.218Z,4.33
2023-02-25T01:13:44.620Z,3.70
2023-02-25T01:16:15.701Z,5.13
2023-02-25T01:18:44.676Z,5.00
2023-02-25T01:21:18.435Z,4.80
2023-02-25T01:23:46.583Z,3.60
2023-02-25T01:26:15.024Z,3.27
2023-02-25T01:28:43.250Z,3.27
2023-02-25T01:31:19.821Z,3.67
2023-02-25T01:33:47.753Z,3.53
2023-02-25T01:36:15.691Z,3.00
2023-02-25T01:38:43.588Z,3.30
2023-02-25T01:41:11.788Z,2.47
2023-02-25T01:43:40.947Z,2.23
2023-02-25T01:46:09.222Z,2.93
2023-02-25T01:48:41.635Z,2.17
2023-02-25T01:51:13.052Z,2.20
2023-02-25T01:53:43.882Z,1.80
2023-02-25T01:56:13.248Z,1.90
2023-02-25T01:58:41.515Z,2.30
2023-02-25T02:01:12.296Z,2.40
2023-02-25T02:03:42.334Z,2.30
2023-02-25T02:06:14.226Z,1.77
2023-02-25T02:08:43.333Z,2.03
2023-02-25T02:11:11.641Z,2.33
2023-02-25T02:13:43.428Z,2.73
2023-02-25T02:16:31.802Z,2.20
2023-02-25T02:19:13.318Z,2.50
2023-02-25T02:22:00.859Z,2.77
2023-02-25T02:25:25.013Z,2.40
2023-02-25T02:28:14.029Z,2.70
2023-02-25T02:30:58.795Z,1.97
2023-02-25T02:33:38.226Z,2.17
2023-02-25T02:36:10.736Z,4.00
2023-02-25T02:38:49.183Z,2.20
2023-02-25T02:41:25.868Z,2.77
2023-02-25T02:43:58.978Z,2.30
2023-02-25T02:46:30.513Z,3.07
2023-02-25T02:49:06.145Z,2.17
2023-02-25T02:51:40.665Z,2.97
2023-02-25T02:54:12.138Z,2.87
2023-02-25T02:56:43.272Z,3.23
2023-02-25T02:59:15.120Z,2.13
2023-02-25T03:01:47.307Z,2.97
2023-02-25T03:04:20.237Z,2.13
2023-02-25T03:06:52.492Z,2.90
2023-02-25T03:09:22.998Z,3.00
2023-02-25T03:11:51.004Z,3.93
2023-02-25T03:14:18.858Z,2.60
2023-02-25T03:16:52.099Z,2.20
2023-02-25T03:19:26.690Z,2.23
2023-02-25T03:21:59.238Z,3.00
2023-02-25T03:24:33.558Z,3.00
2023-02-25T03:27:02.548Z,2.60
2023-02-25T03:29:30.400Z,2.50
2023-02-25T03:32:05.247Z,2.37
2023-02-25T03:34:38.056Z,2.80
2023-02-25T03:37:14.606Z,2.23
2023-02-25T03:39:47.236Z,3.13
2023-02-25T03:42:19.683Z,3.13
2023-02-25T03:44:51.400Z,3.27
2023-02-25T03:47:21.808Z,2.50
2023-02-25T03:49:59.417Z,4.10
2023-02-25T03:52:29.082Z,2.60
2023-02-25T03:54:58.942Z,3.67
2023-02-25T03:57:34.758Z,3.33
2023-02-25T04:00:15.698Z,3.03
2023-02-25T04:02:44.975Z,5.20
2023-02-25T04:05:14.937Z,3.60
2023-02-25T04:07:42.840Z,3.97
2023-02-25T04:10:14.543Z,3.40
2023-02-25T04:12:42.897Z,2.70
2023-02-25T04:15:14.058Z,3.30
2023-02-25T04:17:42.236Z,3.47
2023-02-25T04:20:11.547Z,3.13
2023-02-25T04:22:40.872Z,3.80
2023-02-25T04:25:10.191Z,3.53
2023-02-25T04:27:38.188Z,3.80
2023-02-25T04:30:07.809Z,3.43
2023-02-25T04:32:35.773Z,4.97
2023-02-25T04:35:03.975Z,3.83
2023-02-25T04:37:32.122Z,4.57
2023-02-25T04:40:01.749Z,3.03
2023-02-25T04:42:29.629Z,4.27
2023-02-25T04:44:57.528Z,3.23
2023-02-25T04:47:25.407Z,4.40
2023-02-25T04:49:53.325Z,3.20
2023-02-25T04:52:21.297Z,4.10
2023-02-25T04:54:49.297Z,3.80
2023-02-25T04:57:18.461Z,3.20
2023-02-25T04:59:46.365Z,4.10
2023-02-25T05:02:14.469Z,4.30
2023-02-25T05:04:42.603Z,3.60
2023-02-25T05:07:10.910Z,4.80
2023-02-25T05:09:38.804Z,4.20
2023-02-25T05:12:07.423Z,4.93
2023-02-25T05:14:38.420Z,4.03
2023-02-25T05:17:06.301Z,3.40
2023-02-25T05:19:34.310Z,3.80
2023-02-25T05:22:02.138Z,4.50
2023-02-25T05:24:30.073Z,3.10
2023-02-25T05:26:58.079Z,4.13
2023-02-25T05:29:26.018Z,3.27
2023-02-25T05:31:55.534Z,3.57
2023-02-25T05:34:23.741Z,3.30
2023-02-25T05:36:51.631Z,3.83
2023-02-25T05:39:19.453Z,4.13
2023-02-25T05:41:47.379Z,3.67
2023-02-25T05:44:15.350Z,4.20
2023-02-25T05:46:43.207Z,4.60
2023-02-25T05:49:12.454Z,4.17
2023-02-25T05:51:40.277Z,3.90
2023-02-25T05:54:08.172Z,3.80
2023-02-25T05:56:36.030Z,3.80
2023-02-25T05:59:03.886Z,3.70
2023-02-25T06:01:31.829Z,3.90
2023-02-25T06:03:59.886Z,3.77
2023-02-25T06:06:31.558Z,3.70
2023-02-25T06:08:59.772Z,3.50
2023-02-25T06:11:31.245Z,4.10
2023-02-25T06:14:00.387Z,3.80
2023-02-25T06:16:31.958Z,4.60
2023-02-25T06:19:01.281Z,4.13
2023-02-25T06:21:31.005Z,3.43
2023-02-25T06:23:58.916Z,3.60
2023-02-25T06:26:26.927Z,4.43
2023-02-25T06:28:55.495Z,3.17
2023-02-25T06:31:25.731Z,3.97
2023-02-25T06:33:55.897Z,3.63
2023-02-25T06:36:24.115Z,4.23
2023-02-25T06:38:53.668Z,4.33
2023-02-25T06:41:23.556Z,3.80
2023-02-25T06:43:52.752Z,4.10
2023-02-25T06:46:22.776Z,4.73
2023-02-25T06:48:50.836Z,4.23
2023-02-25T06:51:18.698Z,4.00
2023-02-25T06:53:47.551Z,5.80
2023-02-25T06:56:20.081Z,5.40
2023-02-25T06:58:48.344Z,5.20
2023-02-25T07:01:17.641Z,5.00
2023-02-25T07:03:45.488Z,4.20
2023-02-25T07:06:15.752Z,4.90
2023-02-25T07:08:43.646Z,5.20
2023-02-25T07:11:15.138Z,5.17
2023-02-25T07:13:44.545Z,5.83
2023-02-25T07:16:13.325Z,4.73
2023-02-25T07:18:41.710Z,5.73
2023-02-25T07:21:12.230Z,7.50
2023-02-25T07:23:40.303Z,5.90
2023-02-25T07:26:11.436Z,6.03
2023-02-25T07:28:39.690Z,5.33
2023-02-25T07:31:12.391Z,4.50
2023-02-25T07:33:41.350Z,4.83
2023-02-25T07:36:09.931Z,4.20
2023-02-25T07:38:38.814Z,4.50
2023-02-25T07:41:07.802Z,4.90
2023-02-25T07:43:35.794Z,4.80
2023-02-25T07:46:04.464Z,3.80
2023-02-25T07:48:33.922Z,4.90
2023-02-25T07:51:06.358Z,4.70
2023-02-25T07:53:34.296Z,4.97
2023-02-25T07:56:02.446Z,3.90
2023-02-25T07:58:30.350Z,4.27
2023-02-25T08:00:58.164Z,4.77
2023-02-25T08:03:25.976Z,4.47
2023-02-25T08:05:55.279Z,3.40
2023-02-25T08:08:23.130Z,4.80
2023-02-25T08:10:51.034Z,5.03
2023-02-25T08:13:19.315Z,4.47
2023-02-25T08:15:47.332Z,3.97
2023-02-25T08:18:15.210Z,4.10
2023-02-25T08:20:47.830Z,3.53
2023-02-25T08:23:17.079Z,4.70
2023-02-25T08:25:44.930Z,7.90
2023-02-25T08:28:12.782Z,4.60
2023-02-25T08:30:40.674Z,3.90
2023-02-25T08:33:08.499Z,3.70
2023-02-25T08:35:36.600Z,3.50
2023-02-25T08:38:05.482Z,3.00
2023-02-25T08:40:34.718Z,4.70
2023-02-25T08:43:02.639Z,4.13
2023-02-25T08:45:30.483Z,4.00
2023-02-25T08:47:58.421Z,3.67
2023-02-25T08:50:26.461Z,4.40
2023-02-25T08:52:54.288Z,4.37
2023-02-25T08:55:24.699Z,3.80
2023-02-25T08:57:54.497Z,4.30
2023-02-25T09:00:23.401Z,3.33
2023-02-25T09:02:51.218Z,4.10
2023-02-25T09:05:20.749Z,5.10
2023-02-25T09:07:48.654Z,4.00
2023-02-25T09:10:17.816Z,3.83
2023-02-25T09:12:46.374Z,3.93
2023-02-25T09:15:15.644Z,4.03
2023-02-25T09:17:43.474Z,5.20
2023-02-25T09:20:12.179Z,4.90
2023-02-25T09:22:41.151Z,4.50
2023-02-25T09:25:09.568Z,5.43
2023-02-25T09:27:37.661Z,3.80
2023-02-25T09:30:06.205Z,5.00
2023-02-25T09:32:35.474Z,4.73
2023-02-25T09:35:07.296Z,4.40
2023-02-25T09:37:35.467Z,6.10
2023-02-25T09:40:05.651Z,4.93
2023-02-25T09:42:48.922Z,6.13
2023-02-25T09:45:19.930Z,4.60
2023-02-25T09:47:53.439Z,4.80
2023-02-25T09:50:26.292Z,5.97
2023-02-25T09:53:02.328Z,5.70
2023-02-25T09:55:33.675Z,4.60
2023-02-25T09:58:08.856Z,5.87
2023-02-25T10:00:43.804Z,5.50
2023-02-25T10:03:22.887Z,4.87
2023-02-25T10:05:58.136Z,5.33
2023-02-25T10:08:31.349Z,6.33
2023-02-25T10:11:05.004Z,6.70
2023-02-25T10:13:42.871Z,6.10
2023-02-25T10:16:30.041Z,6.00
2023-02-25T10:19:10.765Z,5.10
2023-02-25T10:22:00.712Z,5.10
2023-02-25T10:24:35.695Z,5.80
2023-02-25T10:27:12.961Z,5.20
2023-02-25T10:29:46.407Z,4.87
2023-02-25T10:32:20.734Z,4.47
2023-02-25T10:34:52.908Z,4.40
2023-02-25T10:37:27.073Z,4.97
2023-02-25T10:39:58.424Z,5.07
2023-02-25T10:42:26.859Z,4.70
2023-02-25T10:44:56.153Z,3.67
2023-02-25T10:47:32.544Z,4.30
2023-02-25T10:50:23.062Z,3.20
2023-02-25T10:53:01.227Z,2.70
2023-02-25T10:55:52.754Z,3.70
2023-02-25T10:58:31.647Z,2.70
2023-02-25T11:01:04.320Z,2.87
2023-02-25T11:03:34.438Z,2.17
2023-02-25T11:06:24.141Z,1.90
2023-02-25T11:08:53.265Z,1.43
2023-02-25T11:11:23.902Z,1.60
2023-02-25T11:13:59.898Z,1.60
2023-02-25T11:16:28.499Z,2.00
2023-02-25T11:18:59.265Z,1.30
2023-02-25T11:21:34.765Z,1.50
2023-02-25T11:24:05.454Z,1.17
2023-02-25T11:26:36.156Z,1.00
2023-02-25T11:29:09.586Z,1.30
2023-02-25T11:31:40.593Z,1.57
2023-02-25T11:34:15.883Z,1.00
2023-02-25T11:36:46.849Z,1.90
2023-02-25T11:39:21.941Z,1.40
2023-02-25T11:41:51.455Z,1.70
2023-02-25T11:44:27.978Z,1.40
2023-02-25T11:47:07.331Z,1.40
2023-02-25T11:49:45.699Z,1.47
2023-02-25T11:52:23.870Z,0.90
2023-02-25T11:55:03.045Z,1.00
2023-02-25T11:57:39.148Z,1.10
2023-02-25T12:00:20.499Z,0.87
2023-02-25T12:03:01.204Z,0.70
2023-02-25T12:06:02.609Z,0.40
2023-02-25T12:08:40.282Z,0.37
2023-02-25T12:11:47.125Z,0.43
2023-02-25T12:14:54.695Z,0.57
2023-02-25T12:18:02.194Z,0.60
2023-02-25T12:21:02.791Z,0.60
2023-02-25T12:24:12.468Z,0.40
2023-02-25T12:27:19.088Z,0.40
2023-02-25T12:30:09.507Z,0.30
2023-02-25T12:32:57.984Z,0.50
2023-02-25T12:35:44.815Z,0.23
2023-02-25T12:38:46.032Z,0.47
2023-02-25T12:41:38.264Z,0.87
2023-02-25T12:44:23.389Z,0.70
2023-02-25T12:47:06.551Z,1.23
2023-02-25T12:50:00.784Z,0.83
2023-02-25T12:52:37.960Z,0.83
2023-02-25T12:55:21.056Z,1.30
2023-02-25T12:57:58.825Z,1.30
2023-02-25T13:00:52.958Z,2.23
2023-02-25T13:03:33.128Z,1.60
2023-02-25T13:06:28.149Z,0.77
2023-02-25T13:09:12.593Z,0.70
2023-02-25T13:12:11.047Z,1.13
2023-02-25T13:15:02.470Z,0.70
2023-02-25T13:17:53.863Z,0.93
2023-02-25T13:20:33.354Z,0.87
2023-02-25T13:23:21.005Z,0.70
2023-02-25T13:26:03.536Z,1.10
2023-02-25T13:28:43.409Z,0.60
2023-02-25T13:31:19.173Z,1.00
2023-02-25T13:34:00.687Z,0.53
2023-02-25T13:36:43.640Z,1.07
2023-02-25T13:39:36.500Z,0.80
2023-02-25T13:42:17.875Z,0.70
2023-02-25T13:45:19.722Z,0.90
2023-02-25T13:48:05.165Z,1.00
2023-02-25T13:51:02.327Z,0.90
2023-02-25T13:53:59.746Z,0.50
2023-02-25T13:57:06.403Z,0.90
2023-02-25T13:59:59.076Z,0.60
2023-02-25T14:02:55.803Z,0.63
2023-02-25T14:05:58.687Z,0.90
2023-02-25T14:08:54.057Z,0.90
2023-02-25T14:11:48.553Z,0.63
2023-02-25T14:14:45.244Z,0.60
2023-02-25T14:17:28.086Z,0.63
2023-02-25T14:20:12.057Z,0.83
2023-02-25T14:22:45.107Z,0.87
2023-02-25T14:25:34.488Z,0.60
2023-02-25T14:28:13.390Z,0.50
2023-02-25T14:30:53.545Z,1.40
2023-02-25T14:33:51.466Z,1.20
2023-02-25T14:36:44.400Z,0.73
2023-02-25T14:39:27.523Z,1.23
2023-02-25T14:42:09.017Z,0.87
2023-02-25T14:44:41.796Z,1.13
2023-02-25T14:47:14.427Z,1.07
2023-02-25T14:49:54.077Z,1.03
2023-02-25T14:52:41.163Z,1.13
2023-02-25T14:55:31.137Z,1.13
2023-02-25T14:58:33.735Z,1.33
2023-02-25T15:01:20.489Z,1.90
2023-02-25T15:04:13.132Z,1.60
2023-02-25T15:06:54.798Z,1.80
2023-02-25T15:09:43.978Z,2.20
2023-02-25T15:12:22.847Z,1.63
2023-02-25T15:15:08.414Z,0.93
2023-02-25T15:18:23.065Z,1.70
2023-02-25T15:20:51.478Z,1.30
2023-02-25T15:23:20.472Z,1.93
2023-02-25T15:25:52.863Z,1.63
2023-02-25T15:28:41.765Z,2.50
2023-02-25T15:31:29.831Z,2.77
2023-02-25T15:34:39.449Z,3.20
2023-02-25T15:37:32.174Z,1.30
2023-02-25T15:40:38.959Z,2.93
2023-02-25T15:43:39.024Z,2.13
2023-02-25T15:46:45.514Z,3.60
2023-02-25T15:49:28.963Z,2.30
2023-02-25T15:51:58.781Z,2.13
2023-02-25T15:54:50.154Z,3.80
2023-02-25T15:57:38.074Z,1.40
2023-02-25T16:00:53.755Z,1.33
2023-02-25T16:03:44.207Z,1.40
2023-02-25T16:06:16.405Z,1.30
2023-02-25T16:08:51.653Z,1.33
2023-02-25T16:11:34.839Z,1.10
2023-02-25T16:14:06.884Z,1.37
2023-02-25T16:16:37.255Z,1.57
2023-02-25T16:19:08.674Z,1.30
2023-02-25T16:21:44.987Z,1.43
2023-02-25T16:24:14.035Z,1.10
2023-02-25T16:26:48.504Z,1.27
2023-02-25T16:29:34.942Z,2.87
2023-02-25T16:32:07.344Z,1.43
2023-02-25T16:34:45.525Z,1.57
2023-02-25T16:37:18.308Z,1.23
2023-02-25T16:39:46.130Z,1.50
2023-02-25T16:42:17.335Z,1.20
2023-02-25T16:44:48.371Z,1.33
2023-02-25T16:47:25.068Z,1.00
2023-02-25T16:49:55.996Z,1.70
2023-02-25T16:52:30.289Z,1.00
2023-02-25T16:55:00.219Z,0.97
2023-02-25T16:57:28.912Z,1.07
2023-02-25T17:00:17.111Z,1.03
2023-02-25T17:02:47.505Z,1.10
2023-02-25T17:05:32.385Z,1.40
2023-02-25T17:08:02.107Z,2.10
2023-02-25T17:10:33.472Z,1.00
2023-02-25T17:13:02.867Z,2.00
2023-02-25T17:15:33.522Z,1.40
2023-02-25T17:18:07.618Z,1.10
2023-02-25T17:20:37.383Z,1.30
2023-02-25T17:23:09.783Z,1.80
2023-02-25T17:25:41.476Z,1.63
2023-02-25T17:28:19.003Z,1.50
2023-02-25T17:30:47.329Z,1.53
2023-02-25T17:33:26.352Z,1.03
2023-02-25T17:35:59.304Z,1.50
2023-02-25T17:38:29.010Z,1.40
2023-02-25T17:40:59.131Z,1.27
2023-02-25T17:43:33.878Z,1.87
2023-02-25T17:46:03.015Z,1.70
2023-02-25T17:48:34.051Z,0.90
2023-02-25T17:51:07.760Z,1.27
2023-02-25T17:53:46.823Z,1.03
2023-02-25T17:56:24.693Z,0.83
2023-02-25T17:58:53.330Z,1.00
2023-02-25T18:01:25.035Z,0.80
2023-02-25T18:03:54.026Z,0.70
2023-02-25T18:06:35.701Z,0.70
2023-02-25T18:09:03.960Z,1.10
2023-02-25T18:11:35.168Z,0.80
2023-02-25T18:14:20.160Z,1.57
2023-02-25T18:16:48.603Z,0.60
2023-02-25T18:19:38.411Z,0.93
2023-02-25T18:22:23.492Z,0.73
2023-02-25T18:24:54.391Z,0.97
2023-02-25T18:27:27.415Z,0.73
2023-02-25T18:29:57.863Z,1.10
2023-02-25T18:32:25.784Z,1.00
2023-02-25T18:34:53.638Z,0.90
2023-02-25T18:37:22.832Z,0.70
2023-02-25T18:39:51.277Z,1.13
2023-02-25T18:42:19.748Z,0.80
2023-02-25T18:44:48.142Z,0.97
2023-02-25T18:47:16.813Z,0.90
2023-02-25T18:49:45.495Z,0.63
2023-02-25T18:52:21.311Z,0.77
2023-02-25T18:54:50.678Z,0.73
2023-02-25T18:57:23.363Z,0.77
2023-02-25T18:59:51.648Z,1.10
2023-02-25T19:02:27.490Z,1.10
2023-02-25T19:04:55.857Z,1.43
2023-02-25T19:07:25.889Z,1.60
2023-02-25T19:09:55.794Z,1.17
2023-02-25T19:12:25.568Z,1.50
2023-02-25T19:14:57.627Z,1.13
2023-02-25T19:17:25.833Z,1.00
2023-02-25T19:19:53.710Z,1.07
2023-02-25T19:22:21.960Z,1.10
2023-02-25T19:24:50.332Z,1.10
2023-02-25T19:27:24.032Z,1.00
2023-02-25T19:29:54.806Z,1.07
2023-02-25T19:32:23.467Z,1.33
2023-02-25T19:34:51.661Z,1.00
2023-02-25T19:37:21.220Z,1.60
2023-02-25T19:39:49.137Z,1.43
2023-02-25T19:42:16.935Z,1.00
2023-02-25T19:44:46.101Z,1.20
2023-02-25T19:47:14.657Z,0.90
2023-02-25T19:49:42.506Z,1.63
2023-02-25T19:52:10.338Z,1.60
2023-02-25T19:54:38.206Z,2.03
2023-02-25T19:57:06.035Z,1.83
2023-02-25T19:59:33.920Z,1.67
2023-02-25T20:02:03.111Z,1.20
2023-02-25T20:04:31.396Z,1.23
2023-02-25T20:06:59.225Z,1.47
2023-02-25T20:09:27.134Z,1.00
2023-02-25T20:11:54.983Z,0.93
2023-02-25T20:14:22.959Z,1.20
2023-02-25T20:16:51.032Z,1.30
2023-02-25T20:19:20.308Z,1.60
2023-02-25T20:21:48.156Z,1.50
2023-02-25T20:24:16.014Z,1.13
2023-02-25T20:26:45.086Z,1.37
2023-02-25T20:29:12.949Z,1.10
2023-02-25T20:31:41.150Z,1.17
2023-02-25T20:34:13.977Z,1.40
2023-02-25T20:36:51.660Z,1.17
2023-02-25T20:39:43.898Z,1.07
2023-02-25T20:42:13.971Z,1.23
2023-02-25T20:44:42.874Z,1.20
2023-02-25T20:47:17.569Z,1.10
2023-02-25T20:49:45.744Z,1.43
2023-02-25T20:52:16.196Z,1.20
2023-02-25T20:54:44.270Z,0.97
2023-02-25T20:57:13.604Z,1.40
2023-02-25T20:59:41.480Z,1.20
2023-02-25T21:02:10.492Z,1.87
2023-02-25T21:04:38.367Z,1.00
2023-02-25T21:07:07.025Z,1.10
2023-02-25T21:09:36.481Z,1.40
2023-02-25T21:12:04.703Z,0.97
2023-02-25T21:14:32.638Z,2.73
2023-02-25T21:17:00.775Z,1.53
2023-02-25T21:19:29.097Z,1.53
2023-02-25T21:21:56.978Z,1.73
2023-02-25T21:24:27.200Z,1.37
2023-02-25T21:26:56.386Z,1.50
2023-02-25T21:29:24.197Z,1.20
2023-02-25T21:31:52.038Z,1.50
2023-02-25T21:34:20.064Z,1.67
2023-02-25T21:36:48.380Z,1.80
2023-02-25T21:39:16.196Z,1.00
2023-02-25T21:41:44.901Z,1.47
2023-02-25T21:44:14.632Z,1.50
2023-02-25T21:46:42.648Z,1.50
2023-02-25T21:49:11.116Z,1.60
2023-02-25T21:51:40.202Z,1.80
2023-02-25T21:54:08.906Z,1.10
2023-02-25T21:56:36.927Z,1.40
2023-02-25T21:59:06.399Z,1.70
2023-02-25T22:01:38.862Z,1.40
2023-02-25T22:04:07.226Z,1.50
2023-02-25T22:06:35.470Z,1.20
2023-02-25T22:09:03.365Z,1.00
2023-02-25T22:11:32.928Z,0.90
2023-02-25T22:14:02.761Z,0.93
2023-02-25T22:16:30.753Z,1.07
2023-02-25T22:19:00.569Z,1.20
2023-02-25T22:21:29.792Z,1.40
2023-02-25T22:23:59.564Z,1.00
2023-02-25T22:26:29.686Z,1.03
2023-02-25T22:28:58.929Z,1.20
2023-02-25T22:31:27.800Z,1.33
2023-02-25T22:33:57.660Z,1.10
2023-02-25T22:36:27.385Z,1.93
2023-02-25T22:38:56.591Z,1.90
2023-02-25T22:41:25.983Z,4.10
2023-02-25T22:43:54.236Z,2.77
2023-02-25T22:46:24.160Z,2.50
2023-02-25T22:48:52.644Z,3.90
2023-02-25T22:51:22.497Z,4.33
2023-02-25T22:53:52.100Z,1.70
2023-02-25T22:56:20.419Z,2.27
2023-02-25T22:58:49.171Z,1.40
2023-02-25T23:01:19.719Z,1.50
2023-02-25T23:03:48.559Z,1.37
2023-02-25T23:06:18.754Z,1.40
2023-02-25T23:08:46.678Z,1.00
2023-02-25T23:11:18.268Z,1.37
2023-02-25T23:13:48.907Z,4.23
2023-02-25T23:16:18.689Z,1.77
2023-02-25T23:18:48.634Z,1.63
2023-02-25T23:21:19.202Z,1.70
2023-02-25T23:23:48.487Z,1.80
2023-02-25T23:26:20.048Z,1.00
2023-02-25T23:28:48.237Z,1.00
2023-02-25T23:31:20.311Z,1.50
2023-02-25T23:33:48.411Z,1.10
2023-02-25T23:36:16.785Z,1.23
2023-02-25T23:38:44.629Z,1.50
2023-02-25T23:41:12.483Z,1.30
2023-02-25T23:43:41.641Z,1.00
2023-02-25T23:46:09.533Z,1.27
2023-02-25T23:48:37.466Z,0.97
2023-02-25T23:51:06.516Z,1.03
2023-02-25T23:53:34.548Z,1.03
2023-02-25T23:56:06.279Z,1.00
2023-02-25T23:58:34.125Z,1.13
